sensor_id;sensor_type;location;lat;lon;timestamp;temperature;humidity
70807;DHT22;58882;52.170;5.386;2023-04-23T00:02:08;15.70;57.00
70807;DHT22;58882;52.170;5.386;2023-04-23T00:04:38;15.70;57.10
70807;DHT22;58882;52.170;5.386;2023-04-23T00:07:05;15.70;57.20
70807;DHT22;58882;52.170;5.386;2023-04-23T00:09:33;15.70;57.20
70807;DHT22;58882;52.170;5.386;2023-04-23T00:12:01;15.70;57.30
70807;DHT22;58882;52.170;5.386;2023-04-23T00:14:28;15.70;57.30
70807;DHT22;58882;52.170;5.386;2023-04-23T00:16:55;15.70;57.30
70807;DHT22;58882;52.170;5.386;2023-04-23T00:19:22;15.70;57.20
70807;DHT22;58882;52.170;5.386;2023-04-23T00:21:49;15.70;57.20
70807;DHT22;58882;52.170;5.386;2023-04-23T00:24:16;15.70;57.20
70807;DHT22;58882;52.170;5.386;2023-04-23T00:26:43;15.70;57.10
70807;DHT22;58882;52.170;5.386;2023-04-23T00:29:10;15.60;57.10
70807;DHT22;58882;52.170;5.386;2023-04-23T00:31:37;15.60;57.10
70807;DHT22;58882;52.170;5.386;2023-04-23T00:34:04;15.60;57.10
70807;DHT22;58882;52.170;5.386;2023-04-23T00:36:30;15.60;57.10
70807;DHT22;58882;52.170;5.386;2023-04-23T00:38:57;15.60;57.20
70807;DHT22;58882;52.170;5.386;2023-04-23T00:41:24;15.60;57.20
70807;DHT22;58882;52.170;5.386;2023-04-23T00:43:54;15.60;57.20
70807;DHT22;58882;52.170;5.386;2023-04-23T00:46:24;15.60;57.40
70807;DHT22;58882;52.170;5.386;2023-04-23T00:48:52;15.60;57.40
70807;DHT22;58882;52.170;5.386;2023-04-23T00:51:23;15.60;57.50
70807;DHT22;58882;52.170;5.386;2023-04-23T00:53:50;15.60;57.50
70807;DHT22;58882;52.170;5.386;2023-04-23T00:56:17;15.60;57.60
70807;DHT22;58882;52.170;5.386;2023-04-23T00:58:44;15.60;57.80
70807;DHT22;58882;52.170;5.386;2023-04-23T01:01:11;15.60;57.80
70807;DHT22;58882;52.170;5.386;2023-04-23T01:03:39;15.60;57.90
70807;DHT22;58882;52.170;5.386;2023-04-23T01:06:08;15.60;57.90
70807;DHT22;58882;52.170;5.386;2023-04-23T01:08:37;15.60;57.90
70807;DHT22;58882;52.170;5.386;2023-04-23T01:11:04;15.60;58.10
70807;DHT22;58882;52.170;5.386;2023-04-23T01:13:31;15.60;58.10
70807;DHT22;58882;52.170;5.386;2023-04-23T01:15:58;15.50;58.00
70807;DHT22;58882;52.170;5.386;2023-04-23T01:18:25;15.60;58.00
70807;DHT22;58882;52.170;5.386;2023-04-23T01:20:53;15.50;58.10
70807;DHT22;58882;52.170;5.386;2023-04-23T01:23:20;15.50;58.20
70807;DHT22;58882;52.170;5.386;2023-04-23T01:25:47;15.50;58.20
70807;DHT22;58882;52.170;5.386;2023-04-23T01:28:15;15.50;58.10
70807;DHT22;58882;52.170;5.386;2023-04-23T01:30:42;15.50;58.30
70807;DHT22;58882;52.170;5.386;2023-04-23T01:33:10;15.60;59.10
70807;DHT22;58882;52.170;5.386;2023-04-23T01:35:38;15.60;58.20
70807;DHT22;58882;52.170;5.386;2023-04-23T01:38:08;15.60;58.40
70807;DHT22;58882;52.170;5.386;2023-04-23T01:40:36;15.60;58.10
70807;DHT22;58882;52.170;5.386;2023-04-23T01:43:04;15.60;58.10
70807;DHT22;58882;52.170;5.386;2023-04-23T01:45:31;15.60;58.10
70807;DHT22;58882;52.170;5.386;2023-04-23T01:48:01;15.60;58.10
70807;DHT22;58882;52.170;5.386;2023-04-23T01:50:28;15.60;58.00
70807;DHT22;58882;52.170;5.386;2023-04-23T01:52:56;15.60;57.90
70807;DHT22;58882;52.170;5.386;2023-04-23T01:55:23;15.60;57.90
70807;DHT22;58882;52.170;5.386;2023-04-23T01:57:49;15.60;57.90
70807;DHT22;58882;52.170;5.386;2023-04-23T02:00:17;15.50;57.90
70807;DHT22;58882;52.170;5.386;2023-04-23T02:02:44;15.50;58.00
70807;DHT22;58882;52.170;5.386;2023-04-23T02:05:13;15.50;58.00
70807;DHT22;58882;52.170;5.386;2023-04-23T02:07:41;15.50;58.10
70807;DHT22;58882;52.170;5.386;2023-04-23T02:10:09;15.50;58.00
70807;DHT22;58882;52.170;5.386;2023-04-23T02:12:37;15.50;57.90
70807;DHT22;58882;52.170;5.386;2023-04-23T02:15:05;15.50;58.00
70807;DHT22;58882;52.170;5.386;2023-04-23T02:17:32;15.50;58.00
70807;DHT22;58882;52.170;5.386;2023-04-23T02:20:01;15.50;57.90
70807;DHT22;58882;52.170;5.386;2023-04-23T02:22:28;15.50;57.80
70807;DHT22;58882;52.170;5.386;2023-04-23T02:24:55;15.50;57.80
70807;DHT22;58882;52.170;5.386;2023-04-23T02:27:22;15.50;57.80
70807;DHT22;58882;52.170;5.386;2023-04-23T02:29:49;15.50;57.90
70807;DHT22;58882;52.170;5.386;2023-04-23T02:32:16;15.50;57.90
70807;DHT22;58882;52.170;5.386;2023-04-23T02:34:42;15.50;57.90
70807;DHT22;58882;52.170;5.386;2023-04-23T02:37:09;15.50;58.10
70807;DHT22;58882;52.170;5.386;2023-04-23T02:39:37;15.50;58.00
70807;DHT22;58882;52.170;5.386;2023-04-23T02:42:08;15.50;58.00
70807;DHT22;58882;52.170;5.386;2023-04-23T02:44:34;15.50;58.00
70807;DHT22;58882;52.170;5.386;2023-04-23T02:47:02;15.50;57.90
70807;DHT22;58882;52.170;5.386;2023-04-23T02:49:29;15.50;57.90
70807;DHT22;58882;52.170;5.386;2023-04-23T02:51:56;15.50;57.90
70807;DHT22;58882;52.170;5.386;2023-04-23T02:54:23;15.50;57.80
70807;DHT22;58882;52.170;5.386;2023-04-23T02:56:50;15.50;57.90
70807;DHT22;58882;52.170;5.386;2023-04-23T02:59:17;15.50;57.80
70807;DHT22;58882;52.170;5.386;2023-04-23T03:01:44;15.50;57.80
70807;DHT22;58882;52.170;5.386;2023-04-23T03:04:11;15.50;57.70
70807;DHT22;58882;52.170;5.386;2023-04-23T03:06:38;15.50;57.70
70807;DHT22;58882;52.170;5.386;2023-04-23T03:09:05;15.50;57.70
70807;DHT22;58882;52.170;5.386;2023-04-23T03:11:32;15.50;57.70
70807;DHT22;58882;52.170;5.386;2023-04-23T03:14:00;15.40;58.70
70807;DHT22;58882;52.170;5.386;2023-04-23T03:16:28;15.50;57.80
70807;DHT22;58882;52.170;5.386;2023-04-23T03:18:55;15.50;57.80
70807;DHT22;58882;52.170;5.386;2023-04-23T03:21:23;15.50;57.80
70807;DHT22;58882;52.170;5.386;2023-04-23T03:23:49;15.50;57.70
70807;DHT22;58882;52.170;5.386;2023-04-23T03:26:16;15.50;57.70
70807;DHT22;58882;52.170;5.386;2023-04-23T03:28:43;15.50;57.60
70807;DHT22;58882;52.170;5.386;2023-04-23T03:31:10;15.50;57.70
70807;DHT22;58882;52.170;5.386;2023-04-23T03:33:37;15.50;57.70
70807;DHT22;58882;52.170;5.386;2023-04-23T03:36:04;15.50;57.70
70807;DHT22;58882;52.170;5.386;2023-04-23T03:38:31;15.50;57.60
70807;DHT22;58882;52.170;5.386;2023-04-23T03:41:00;15.50;57.60
70807;DHT22;58882;52.170;5.386;2023-04-23T03:43:27;15.50;57.50
70807;DHT22;58882;52.170;5.386;2023-04-23T03:46:03;15.50;58.30
70807;DHT22;58882;52.170;5.386;2023-04-23T03:48:34;15.50;57.30
70807;DHT22;58882;52.170;5.386;2023-04-23T03:51:05;15.50;57.40
70807;DHT22;58882;52.170;5.386;2023-04-23T03:53:37;15.50;57.40
70807;DHT22;58882;52.170;5.386;2023-04-23T03:56:23;15.50;57.60
70807;DHT22;58882;52.170;5.386;2023-04-23T03:59:24;15.40;57.40
70807;DHT22;58882;52.170;5.386;2023-04-23T04:01:53;15.50;57.50
70807;DHT22;58882;52.170;5.386;2023-04-23T04:04:20;15.40;58.40
70807;DHT22;58882;52.170;5.386;2023-04-23T04:06:49;15.40;57.50
70807;DHT22;58882;52.170;5.386;2023-04-23T04:09:16;15.40;57.60
70807;DHT22;58882;52.170;5.386;2023-04-23T04:11:42;15.40;57.60
70807;DHT22;58882;52.170;5.386;2023-04-23T04:14:09;15.50;57.70
70807;DHT22;58882;52.170;5.386;2023-04-23T04:16:36;15.50;57.80
70807;DHT22;58882;52.170;5.386;2023-04-23T04:19:03;15.50;57.80
70807;DHT22;58882;52.170;5.386;2023-04-23T04:21:30;15.50;57.80
70807;DHT22;58882;52.170;5.386;2023-04-23T04:23:58;15.50;58.70
70807;DHT22;58882;52.170;5.386;2023-04-23T04:26:27;15.50;57.80
70807;DHT22;58882;52.170;5.386;2023-04-23T04:28:55;15.50;58.00
70807;DHT22;58882;52.170;5.386;2023-04-23T04:31:24;15.50;57.80
70807;DHT22;58882;52.170;5.386;2023-04-23T04:33:51;15.50;57.70
70807;DHT22;58882;52.170;5.386;2023-04-23T04:36:18;15.50;57.70
70807;DHT22;58882;52.170;5.386;2023-04-23T04:38:44;15.50;57.60
70807;DHT22;58882;52.170;5.386;2023-04-23T04:41:11;15.50;57.60
70807;DHT22;58882;52.170;5.386;2023-04-23T04:43:39;15.50;57.60
70807;DHT22;58882;52.170;5.386;2023-04-23T04:46:06;15.50;57.50
70807;DHT22;58882;52.170;5.386;2023-04-23T04:48:37;15.50;57.40
70807;DHT22;58882;52.170;5.386;2023-04-23T04:51:04;15.50;57.40
70807;DHT22;58882;52.170;5.386;2023-04-23T04:53:31;15.50;57.30
70807;DHT22;58882;52.170;5.386;2023-04-23T04:55:58;15.50;57.20
70807;DHT22;58882;52.170;5.386;2023-04-23T04:58:25;15.50;57.20
70807;DHT22;58882;52.170;5.386;2023-04-23T05:00:51;15.60;57.20
70807;DHT22;58882;52.170;5.386;2023-04-23T05:03:19;15.50;57.10
70807;DHT22;58882;52.170;5.386;2023-04-23T05:05:47;15.60;57.10
70807;DHT22;58882;52.170;5.386;2023-04-23T05:08:14;15.60;57.10
70807;DHT22;58882;52.170;5.386;2023-04-23T05:10:42;15.60;57.10
70807;DHT22;58882;52.170;5.386;2023-04-23T05:13:09;15.60;57.10
70807;DHT22;58882;52.170;5.386;2023-04-23T05:15:36;15.60;57.10
70807;DHT22;58882;52.170;5.386;2023-04-23T05:18:04;15.60;57.10
70807;DHT22;58882;52.170;5.386;2023-04-23T05:20:31;15.60;57.00
70807;DHT22;58882;52.170;5.386;2023-04-23T05:22:58;15.60;56.90
70807;DHT22;58882;52.170;5.386;2023-04-23T05:25:25;15.60;56.90
70807;DHT22;58882;52.170;5.386;2023-04-23T05:27:52;15.60;56.90
70807;DHT22;58882;52.170;5.386;2023-04-23T05:30:19;15.60;56.80
70807;DHT22;58882;52.170;5.386;2023-04-23T05:32:46;15.60;56.70
70807;DHT22;58882;52.170;5.386;2023-04-23T05:35:13;15.70;56.80
70807;DHT22;58882;52.170;5.386;2023-04-23T05:37:40;15.70;56.70
70807;DHT22;58882;52.170;5.386;2023-04-23T05:40:07;15.70;56.70
70807;DHT22;58882;52.170;5.386;2023-04-23T05:42:35;15.70;56.50
70807;DHT22;58882;52.170;5.386;2023-04-23T05:45:02;15.70;56.50
70807;DHT22;58882;52.170;5.386;2023-04-23T05:47:32;15.70;56.60
70807;DHT22;58882;52.170;5.386;2023-04-23T05:49:59;15.70;56.50
70807;DHT22;58882;52.170;5.386;2023-04-23T05:52:28;15.70;56.60
70807;DHT22;58882;52.170;5.386;2023-04-23T05:54:58;15.70;56.70
70807;DHT22;58882;52.170;5.386;2023-04-23T05:57:25;15.70;56.70
70807;DHT22;58882;52.170;5.386;2023-04-23T05:59:52;15.70;56.80
70807;DHT22;58882;52.170;5.386;2023-04-23T06:02:19;15.80;56.90
70807;DHT22;58882;52.170;5.386;2023-04-23T06:04:50;15.80;56.90
70807;DHT22;58882;52.170;5.386;2023-04-23T06:07:17;15.90;56.80
70807;DHT22;58882;52.170;5.386;2023-04-23T06:09:44;16.00;56.80
70807;DHT22;58882;52.170;5.386;2023-04-23T06:12:11;16.00;56.70
70807;DHT22;58882;52.170;5.386;2023-04-23T06:14:38;16.00;56.60
70807;DHT22;58882;52.170;5.386;2023-04-23T06:17:05;16.10;56.70
70807;DHT22;58882;52.170;5.386;2023-04-23T06:19:32;16.10;56.60
70807;DHT22;58882;52.170;5.386;2023-04-23T06:21:59;16.20;56.70
70807;DHT22;58882;52.170;5.386;2023-04-23T06:24:26;16.20;56.50
70807;DHT22;58882;52.170;5.386;2023-04-23T06:26:53;16.30;56.50
70807;DHT22;58882;52.170;5.386;2023-04-23T06:29:20;16.30;56.40
70807;DHT22;58882;52.170;5.386;2023-04-23T06:32:05;16.40;56.30
70807;DHT22;58882;52.170;5.386;2023-04-23T06:34:32;16.40;56.30
70807;DHT22;58882;52.170;5.386;2023-04-23T06:36:59;16.50;56.40
70807;DHT22;58882;52.170;5.386;2023-04-23T06:39:26;16.50;56.30
70807;DHT22;58882;52.170;5.386;2023-04-23T06:41:53;16.60;56.30
70807;DHT22;58882;52.170;5.386;2023-04-23T06:44:32;16.70;56.20
70807;DHT22;58882;52.170;5.386;2023-04-23T06:47:01;16.80;56.20
70807;DHT22;58882;52.170;5.386;2023-04-23T06:49:30;16.80;56.30
70807;DHT22;58882;52.170;5.386;2023-04-23T06:51:57;16.90;56.00
70807;DHT22;58882;52.170;5.386;2023-04-23T06:54:24;17.00;55.80
70807;DHT22;58882;52.170;5.386;2023-04-23T06:56:51;17.10;55.80
70807;DHT22;58882;52.170;5.386;2023-04-23T06:59:18;17.20;55.80
70807;DHT22;58882;52.170;5.386;2023-04-23T07:01:49;17.20;55.50
70807;DHT22;58882;52.170;5.386;2023-04-23T07:04:16;17.30;55.30
70807;DHT22;58882;52.170;5.386;2023-04-23T07:06:42;17.40;55.30
70807;DHT22;58882;52.170;5.386;2023-04-23T07:09:09;17.50;55.10
70807;DHT22;58882;52.170;5.386;2023-04-23T07:11:36;17.70;55.20
70807;DHT22;58882;52.170;5.386;2023-04-23T07:14:03;18.00;54.80
70807;DHT22;58882;52.170;5.386;2023-04-23T07:16:30;18.50;54.10
70807;DHT22;58882;52.170;5.386;2023-04-23T07:19:00;19.00;53.00
70807;DHT22;58882;52.170;5.386;2023-04-23T07:21:28;19.50;52.00
70807;DHT22;58882;52.170;5.386;2023-04-23T07:23:56;20.00;50.90
70807;DHT22;58882;52.170;5.386;2023-04-23T07:26:23;20.50;49.80
70807;DHT22;58882;52.170;5.386;2023-04-23T07:28:50;21.00;49.80
70807;DHT22;58882;52.170;5.386;2023-04-23T07:31:18;21.40;48.10
70807;DHT22;58882;52.170;5.386;2023-04-23T07:33:46;21.80;46.90
70807;DHT22;58882;52.170;5.386;2023-04-23T07:36:13;22.10;45.90
70807;DHT22;58882;52.170;5.386;2023-04-23T07:38:40;22.50;45.20
70807;DHT22;58882;52.170;5.386;2023-04-23T07:41:06;22.80;44.40
70807;DHT22;58882;52.170;5.386;2023-04-23T07:43:33;23.10;43.50
70807;DHT22;58882;52.170;5.386;2023-04-23T07:46:00;23.40;43.00
70807;DHT22;58882;52.170;5.386;2023-04-23T07:48:27;23.60;42.40
70807;DHT22;58882;52.170;5.386;2023-04-23T07:50:54;23.80;41.70
70807;DHT22;58882;52.170;5.386;2023-04-23T07:53:22;24.00;41.40
70807;DHT22;58882;52.170;5.386;2023-04-23T07:55:48;24.30;40.90
70807;DHT22;58882;52.170;5.386;2023-04-23T07:58:18;24.50;40.30
70807;DHT22;58882;52.170;5.386;2023-04-23T08:00:45;24.70;40.70
70807;DHT22;58882;52.170;5.386;2023-04-23T08:03:12;24.90;39.20
70807;DHT22;58882;52.170;5.386;2023-04-23T08:05:39;25.10;38.70
70807;DHT22;58882;52.170;5.386;2023-04-23T08:08:07;25.30;38.10
70807;DHT22;58882;52.170;5.386;2023-04-23T08:10:34;25.50;37.80
70807;DHT22;58882;52.170;5.386;2023-04-23T08:13:01;25.70;37.40
70807;DHT22;58882;52.170;5.386;2023-04-23T08:15:28;25.90;37.00
70807;DHT22;58882;52.170;5.386;2023-04-23T08:17:55;26.10;36.70
70807;DHT22;58882;52.170;5.386;2023-04-23T08:20:22;26.20;36.30
70807;DHT22;58882;52.170;5.386;2023-04-23T08:22:50;26.40;36.60
70807;DHT22;58882;52.170;5.386;2023-04-23T08:25:19;26.50;35.70
70807;DHT22;58882;52.170;5.386;2023-04-23T08:27:48;26.60;35.30
70807;DHT22;58882;52.170;5.386;2023-04-23T08:30:16;26.70;35.10
70807;DHT22;58882;52.170;5.386;2023-04-23T08:32:43;26.90;34.90
70807;DHT22;58882;52.170;5.386;2023-04-23T08:35:10;27.00;34.60
70807;DHT22;58882;52.170;5.386;2023-04-23T08:37:38;27.10;34.20
70807;DHT22;58882;52.170;5.386;2023-04-23T08:40:06;27.20;34.10
70807;DHT22;58882;52.170;5.386;2023-04-23T08:43:08;27.30;33.70
70807;DHT22;58882;52.170;5.386;2023-04-23T08:45:28;27.40;33.50
70807;DHT22;58882;52.170;5.386;2023-04-23T08:47:59;27.50;33.20
70807;DHT22;58882;52.170;5.386;2023-04-23T08:50:29;27.60;33.00
70807;DHT22;58882;52.170;5.386;2023-04-23T08:52:57;27.70;32.70
70807;DHT22;58882;52.170;5.386;2023-04-23T08:55:24;27.80;32.50
70807;DHT22;58882;52.170;5.386;2023-04-23T08:57:51;27.90;32.30
70807;DHT22;58882;52.170;5.386;2023-04-23T09:00:20;28.00;32.10
70807;DHT22;58882;52.170;5.386;2023-04-23T09:02:48;28.10;32.00
70807;DHT22;58882;52.170;5.386;2023-04-23T09:05:16;28.20;31.90
70807;DHT22;58882;52.170;5.386;2023-04-23T09:07:43;28.20;31.60
70807;DHT22;58882;52.170;5.386;2023-04-23T09:10:11;28.30;31.50
70807;DHT22;58882;52.170;5.386;2023-04-23T09:12:41;28.30;32.30
70807;DHT22;58882;52.170;5.386;2023-04-23T09:15:09;28.40;31.20
70807;DHT22;58882;52.170;5.386;2023-04-23T09:17:41;28.50;31.10
70807;DHT22;58882;52.170;5.386;2023-04-23T09:20:10;28.50;30.90
70807;DHT22;58882;52.170;5.386;2023-04-23T09:22:44;28.60;30.80
70807;DHT22;58882;52.170;5.386;2023-04-23T09:25:18;28.70;31.40
70807;DHT22;58882;52.170;5.386;2023-04-23T09:27:46;28.70;30.70
70807;DHT22;58882;52.170;5.386;2023-04-23T09:30:14;28.70;30.60
70807;DHT22;58882;52.170;5.386;2023-04-23T09:32:42;28.60;30.50
70807;DHT22;58882;52.170;5.386;2023-04-23T09:35:12;28.50;30.50
70807;DHT22;58882;52.170;5.386;2023-04-23T09:37:48;28.60;30.60
70807;DHT22;58882;52.170;5.386;2023-04-23T09:40:17;28.60;30.40
70807;DHT22;58882;52.170;5.386;2023-04-23T09:42:50;28.80;30.30
70807;DHT22;58882;52.170;5.386;2023-04-23T09:45:19;28.80;30.10
70807;DHT22;58882;52.170;5.386;2023-04-23T09:47:50;28.70;30.00
70807;DHT22;58882;52.170;5.386;2023-04-23T09:50:37;28.60;30.10
70807;DHT22;58882;52.170;5.386;2023-04-23T09:53:06;28.50;30.00
70807;DHT22;58882;52.170;5.386;2023-04-23T09:55:37;28.30;30.10
70807;DHT22;58882;52.170;5.386;2023-04-23T09:58:09;28.10;30.30
70807;DHT22;58882;52.170;5.386;2023-04-23T10:00:38;28.10;30.50
70807;DHT22;58882;52.170;5.386;2023-04-23T10:03:05;28.10;30.50
70807;DHT22;58882;52.170;5.386;2023-04-23T10:05:40;28.20;30.70
70807;DHT22;58882;52.170;5.386;2023-04-23T10:08:11;28.00;30.60
70807;DHT22;58882;52.170;5.386;2023-04-23T10:10:39;28.00;30.40
70807;DHT22;58882;52.170;5.386;2023-04-23T10:13:26;27.90;30.50
70807;DHT22;58882;52.170;5.386;2023-04-23T10:15:53;27.80;30.30
70807;DHT22;58882;52.170;5.386;2023-04-23T10:18:31;27.60;30.60
70807;DHT22;58882;52.170;5.386;2023-04-23T10:21:00;27.20;31.00
70807;DHT22;58882;52.170;5.386;2023-04-23T10:23:27;26.90;31.40
70807;DHT22;58882;52.170;5.386;2023-04-23T10:25:56;26.70;31.90
70807;DHT22;58882;52.170;5.386;2023-04-23T10:28:25;26.50;31.50
70807;DHT22;58882;52.170;5.386;2023-04-23T10:30:58;26.30;31.90
70807;DHT22;58882;52.170;5.386;2023-04-23T10:33:27;26.30;32.10
70807;DHT22;58882;52.170;5.386;2023-04-23T10:36:06;26.20;31.80
70807;DHT22;58882;52.170;5.386;2023-04-23T10:38:33;26.10;32.30
70807;DHT22;58882;52.170;5.386;2023-04-23T10:41:04;26.00;32.40
70807;DHT22;58882;52.170;5.386;2023-04-23T10:43:33;26.10;32.30
70807;DHT22;58882;52.170;5.386;2023-04-23T10:46:00;26.30;32.10
70807;DHT22;58882;52.170;5.386;2023-04-23T10:48:27;26.30;31.60
70807;DHT22;58882;52.170;5.386;2023-04-23T10:50:58;26.20;31.20
70807;DHT22;58882;52.170;5.386;2023-04-23T10:53:44;26.00;31.50
70807;DHT22;58882;52.170;5.386;2023-04-23T10:56:11;25.80;32.00
70807;DHT22;58882;52.170;5.386;2023-04-23T10:58:48;25.50;32.30
70807;DHT22;58882;52.170;5.386;2023-04-23T11:01:16;25.30;33.50
70807;DHT22;58882;52.170;5.386;2023-04-23T11:03:44;25.10;32.70
70807;DHT22;58882;52.170;5.386;2023-04-23T11:06:13;25.10;32.40
70807;DHT22;58882;52.170;5.386;2023-04-23T11:08:52;25.00;32.50
70807;DHT22;58882;52.170;5.386;2023-04-23T11:11:39;24.90;32.80
70807;DHT22;58882;52.170;5.386;2023-04-23T11:14:10;24.90;32.90
70807;DHT22;58882;52.170;5.386;2023-04-23T11:16:40;25.00;33.00
70807;DHT22;58882;52.170;5.386;2023-04-23T11:19:10;24.90;32.80
70807;DHT22;58882;52.170;5.386;2023-04-23T11:24:29;24.70;33.30
70807;DHT22;58882;52.170;5.386;2023-04-23T11:26:56;24.60;33.60
70807;DHT22;58882;52.170;5.386;2023-04-23T11:29:25;24.50;33.80
70807;DHT22;58882;52.170;5.386;2023-04-23T11:31:53;24.50;33.40
70807;DHT22;58882;52.170;5.386;2023-04-23T11:34:30;24.40;33.40
70807;DHT22;58882;52.170;5.386;2023-04-23T11:36:58;24.40;32.90
70807;DHT22;58882;52.170;5.386;2023-04-23T11:39:26;24.40;33.00
70807;DHT22;58882;52.170;5.386;2023-04-23T11:41:54;24.30;33.40
70807;DHT22;58882;52.170;5.386;2023-04-23T11:44:21;24.20;33.70
70807;DHT22;58882;52.170;5.386;2023-04-23T11:46:48;24.10;33.60
70807;DHT22;58882;52.170;5.386;2023-04-23T11:49:16;24.10;33.80
70807;DHT22;58882;52.170;5.386;2023-04-23T11:51:44;24.00;33.80
70807;DHT22;58882;52.170;5.386;2023-04-23T11:54:12;23.90;33.90
70807;DHT22;58882;52.170;5.386;2023-04-23T11:56:40;23.90;34.10
70807;DHT22;58882;52.170;5.386;2023-04-23T11:59:08;23.80;34.30
70807;DHT22;58882;52.170;5.386;2023-04-23T12:01:45;23.80;34.40
70807;DHT22;58882;52.170;5.386;2023-04-23T12:04:19;23.70;34.40
70807;DHT22;58882;52.170;5.386;2023-04-23T12:06:48;23.70;34.10
70807;DHT22;58882;52.170;5.386;2023-04-23T12:09:17;23.70;34.30
70807;DHT22;58882;52.170;5.386;2023-04-23T12:11:44;23.60;34.50
70807;DHT22;58882;52.170;5.386;2023-04-23T12:14:13;23.60;34.50
70807;DHT22;58882;52.170;5.386;2023-04-23T12:16:41;23.50;34.70
70807;DHT22;58882;52.170;5.386;2023-04-23T12:19:12;23.50;34.80
70807;DHT22;58882;52.170;5.386;2023-04-23T12:21:54;23.40;34.90
70807;DHT22;58882;52.170;5.386;2023-04-23T12:24:22;23.40;35.00
70807;DHT22;58882;52.170;5.386;2023-04-23T12:26:51;23.40;34.90
70807;DHT22;58882;52.170;5.386;2023-04-23T12:29:21;23.30;34.80
70807;DHT22;58882;52.170;5.386;2023-04-23T12:31:50;23.30;35.00
70807;DHT22;58882;52.170;5.386;2023-04-23T12:34:19;23.30;35.10
70807;DHT22;58882;52.170;5.386;2023-04-23T12:36:51;23.30;35.00
70807;DHT22;58882;52.170;5.386;2023-04-23T12:39:29;23.30;34.90
70807;DHT22;58882;52.170;5.386;2023-04-23T12:41:58;23.30;34.80
70807;DHT22;58882;52.170;5.386;2023-04-23T12:44:27;23.30;34.70
70807;DHT22;58882;52.170;5.386;2023-04-23T12:47:03;23.30;34.70
70807;DHT22;58882;52.170;5.386;2023-04-23T12:49:31;23.20;34.80
70807;DHT22;58882;52.170;5.386;2023-04-23T12:51:59;23.20;34.90
70807;DHT22;58882;52.170;5.386;2023-04-23T12:54:35;23.20;35.10
70807;DHT22;58882;52.170;5.386;2023-04-23T12:57:04;23.10;35.40
70807;DHT22;58882;52.170;5.386;2023-04-23T12:59:31;23.10;36.50
70807;DHT22;58882;52.170;5.386;2023-04-23T13:01:59;23.10;35.30
70807;DHT22;58882;52.170;5.386;2023-04-23T13:04:33;23.10;35.10
70807;DHT22;58882;52.170;5.386;2023-04-23T13:07:00;23.00;35.20
70807;DHT22;58882;52.170;5.386;2023-04-23T13:09:28;23.00;35.40
70807;DHT22;58882;52.170;5.386;2023-04-23T13:11:56;23.00;35.60
70807;DHT22;58882;52.170;5.386;2023-04-23T13:14:22;22.90;35.60
70807;DHT22;58882;52.170;5.386;2023-04-23T13:16:49;22.80;35.60
70807;DHT22;58882;52.170;5.386;2023-04-23T13:19:16;22.80;35.60
70807;DHT22;58882;52.170;5.386;2023-04-23T13:21:44;22.80;35.70
70807;DHT22;58882;52.170;5.386;2023-04-23T13:24:11;22.80;35.60
70807;DHT22;58882;52.170;5.386;2023-04-23T13:26:37;22.80;35.60
70807;DHT22;58882;52.170;5.386;2023-04-23T13:29:05;22.80;35.60
70807;DHT22;58882;52.170;5.386;2023-04-23T13:31:32;22.70;35.80
70807;DHT22;58882;52.170;5.386;2023-04-23T13:33:59;22.70;35.80
70807;DHT22;58882;52.170;5.386;2023-04-23T13:36:28;22.70;36.00
70807;DHT22;58882;52.170;5.386;2023-04-23T13:38:55;22.70;36.00
70807;DHT22;58882;52.170;5.386;2023-04-23T13:41:22;22.60;35.90
70807;DHT22;58882;52.170;5.386;2023-04-23T13:43:49;22.60;36.00
70807;DHT22;58882;52.170;5.386;2023-04-23T13:46:16;22.60;36.10
70807;DHT22;58882;52.170;5.386;2023-04-23T13:48:42;22.60;36.20
70807;DHT22;58882;52.170;5.386;2023-04-23T13:51:09;22.60;36.20
70807;DHT22;58882;52.170;5.386;2023-04-23T13:53:56;22.60;36.30
70807;DHT22;58882;52.170;5.386;2023-04-23T13:56:25;22.60;36.30
70807;DHT22;58882;52.170;5.386;2023-04-23T13:58:52;22.60;35.90
70807;DHT22;58882;52.170;5.386;2023-04-23T14:01:33;22.60;35.90
70807;DHT22;58882;52.170;5.386;2023-04-23T14:04:00;22.50;35.90
70807;DHT22;58882;52.170;5.386;2023-04-23T14:06:30;22.50;35.60
70807;DHT22;58882;52.170;5.386;2023-04-23T14:08:57;22.50;35.90
70807;DHT22;58882;52.170;5.386;2023-04-23T14:11:24;22.50;36.00
70807;DHT22;58882;52.170;5.386;2023-04-23T14:13:50;22.40;36.00
70807;DHT22;58882;52.170;5.386;2023-04-23T14:16:17;22.40;35.80
70807;DHT22;58882;52.170;5.386;2023-04-23T14:18:44;22.40;35.90
70807;DHT22;58882;52.170;5.386;2023-04-23T14:21:11;22.40;36.00
70807;DHT22;58882;52.170;5.386;2023-04-23T14:26:35;22.40;36.10
70807;DHT22;58882;52.170;5.386;2023-04-23T14:29:35;22.30;36.00
70807;DHT22;58882;52.170;5.386;2023-04-23T14:32:06;22.30;36.00
70807;DHT22;58882;52.170;5.386;2023-04-23T14:34:33;22.30;36.00
70807;DHT22;58882;52.170;5.386;2023-04-23T14:37:03;22.20;36.20
70807;DHT22;58882;52.170;5.386;2023-04-23T14:39:30;22.20;36.50
70807;DHT22;58882;52.170;5.386;2023-04-23T14:41:57;22.20;36.70
70807;DHT22;58882;52.170;5.386;2023-04-23T14:44:24;22.20;36.90
70807;DHT22;58882;52.170;5.386;2023-04-23T14:46:54;22.20;36.90
70807;DHT22;58882;52.170;5.386;2023-04-23T14:49:22;22.20;36.90
70807;DHT22;58882;52.170;5.386;2023-04-23T14:51:50;22.10;37.50
70807;DHT22;58882;52.170;5.386;2023-04-23T14:54:21;22.10;37.00
70807;DHT22;58882;52.170;5.386;2023-04-23T14:56:49;22.10;37.20
70807;DHT22;58882;52.170;5.386;2023-04-23T14:59:16;22.10;37.30
70807;DHT22;58882;52.170;5.386;2023-04-23T15:01:43;22.00;37.50
70807;DHT22;58882;52.170;5.386;2023-04-23T15:04:10;21.90;37.80
70807;DHT22;58882;52.170;5.386;2023-04-23T15:06:37;21.90;38.30
70807;DHT22;58882;52.170;5.386;2023-04-23T15:09:05;21.90;38.80
70807;DHT22;58882;52.170;5.386;2023-04-23T15:11:32;21.80;39.20
70807;DHT22;58882;52.170;5.386;2023-04-23T15:14:23;21.70;39.90
70807;DHT22;58882;52.170;5.386;2023-04-23T15:16:50;21.60;41.40
70807;DHT22;58882;52.170;5.386;2023-04-23T15:19:18;21.40;41.90
70807;DHT22;58882;52.170;5.386;2023-04-23T15:21:46;21.30;42.50
70807;DHT22;58882;52.170;5.386;2023-04-23T15:24:14;21.30;43.00
70807;DHT22;58882;52.170;5.386;2023-04-23T15:26:42;21.20;43.60
70807;DHT22;58882;52.170;5.386;2023-04-23T15:29:09;21.10;44.10
70807;DHT22;58882;52.170;5.386;2023-04-23T15:31:36;21.00;44.30
70807;DHT22;58882;52.170;5.386;2023-04-23T15:34:04;20.90;44.70
70807;DHT22;58882;52.170;5.386;2023-04-23T15:36:35;20.80;45.10
70807;DHT22;58882;52.170;5.386;2023-04-23T15:39:03;20.70;45.30
70807;DHT22;58882;52.170;5.386;2023-04-23T15:41:30;20.60;45.20
70807;DHT22;58882;52.170;5.386;2023-04-23T15:43:56;20.60;45.60
70807;DHT22;58882;52.170;5.386;2023-04-23T15:46:23;20.50;46.00